createdAt,value
2023-06-06T00:01:11.264Z,8.10
2023-06-06T00:03:34.992Z,8.27
2023-06-06T00:06:00.520Z,10.88
2023-06-06T00:08:25.095Z,8.50
2023-06-06T00:10:48.381Z,7.67
2023-06-06T00:13:15.269Z,7.40
2023-06-06T00:15:40.224Z,7.82
2023-06-06T00:18:03.572Z,6.88
2023-06-06T00:20:27.003Z,9.52
2023-06-06T00:22:54.348Z,7.53
2023-06-06T00:25:17.239Z,9.63
2023-06-06T00:27:39.941Z,8.52
2023-06-06T00:30:03.983Z,9.25
2023-06-06T00:32:28.595Z,8.23
2023-06-06T00:34:51.286Z,7.43
2023-06-06T00:37:14.661Z,8.35
2023-06-06T00:39:37.307Z,8.15
2023-06-06T00:42:00.014Z,8.88
2023-06-06T00:44:22.765Z,8.60
2023-06-06T00:46:45.955Z,7.70
2023-06-06T00:49:13.384Z,11.18
2023-06-06T00:51:36.131Z,11.18
2023-06-06T00:54:00.783Z,10.40
2023-06-06T00:56:29.619Z,9.68
2023-06-06T00:58:52.885Z,10.00
2023-06-06T01:01:18.037Z,11.13
2023-06-06T01:03:42.286Z,8.80
2023-06-06T01:06:06.770Z,10.38
2023-06-06T01:08:29.835Z,11.55
2023-06-06T01:11:02.077Z,8.90
2023-06-06T01:13:39.728Z,11.18
2023-06-06T01:16:13.483Z,13.45
2023-06-06T01:18:38.882Z,12.88
2023-06-06T01:21:03.015Z,9.43
2023-06-06T01:23:29.175Z,10.27
2023-06-06T01:25:51.924Z,10.57
2023-06-06T01:28:18.856Z,9.50
2023-06-06T01:30:43.631Z,11.10
2023-06-06T01:33:22.962Z,10.80
2023-06-06T01:36:12.141Z,10.20
2023-06-06T01:38:57.245Z,10.85
2023-06-06T01:41:21.603Z,9.85
2023-06-06T01:43:54.192Z,11.15
2023-06-06T01:46:19.011Z,11.38
2023-06-06T01:48:42.573Z,10.47
2023-06-06T01:51:06.676Z,10.40
2023-06-06T01:53:29.338Z,10.13
2023-06-06T01:55:52.491Z,10.18
2023-06-06T01:58:16.814Z,11.45
2023-06-06T02:00:39.564Z,10.33
2023-06-06T02:03:02.997Z,9.88
2023-06-06T02:05:25.711Z,10.55
2023-06-06T02:07:50.873Z,11.85
2023-06-06T02:10:14.810Z,11.38
2023-06-06T02:12:37.783Z,11.30
2023-06-06T02:15:04.763Z,10.88
2023-06-06T02:17:28.153Z,10.68
2023-06-06T02:19:51.043Z,12.98
2023-06-06T02:22:14.449Z,10.95
2023-06-06T02:24:38.275Z,10.13
2023-06-06T02:27:01.027Z,9.90
2023-06-06T02:29:24.578Z,14.00
2023-06-06T02:31:48.933Z,14.50
2023-06-06T02:34:11.620Z,15.23
2023-06-06T02:36:35.031Z,12.70
2023-06-06T02:38:58.307Z,15.98
2023-06-06T02:41:21.030Z,12.70
2023-06-06T02:43:43.850Z,16.08
2023-06-06T02:46:08.398Z,20.23
2023-06-06T02:48:31.313Z,15.77
2023-06-06T02:50:54.290Z,15.18
2023-06-06T02:53:17.051Z,25.48
2023-06-06T02:55:39.842Z,17.80
2023-06-06T02:58:02.689Z,16.42
2023-06-06T03:00:25.692Z,17.50
2023-06-06T03:02:48.952Z,17.48
2023-06-06T03:05:13.236Z,15.32
2023-06-06T03:08:17.508Z,18.42
2023-06-06T03:10:40.253Z,14.27
2023-06-06T03:13:02.863Z,16.17
2023-06-06T03:15:26.361Z,17.20
2023-06-06T03:17:50.354Z,21.77
2023-06-06T03:20:17.018Z,15.07
2023-06-06T03:22:45.595Z,20.65
2023-06-06T03:25:08.845Z,17.40
2023-06-06T03:27:31.856Z,14.50
2023-06-06T03:29:55.212Z,17.50
2023-06-06T03:32:21.337Z,15.80
2023-06-06T03:34:44.132Z,16.58
2023-06-06T03:37:09.210Z,16.27
2023-06-06T03:39:32.299Z,16.80
2023-06-06T03:41:55.167Z,16.45
2023-06-06T03:44:18.228Z,17.08
2023-06-06T03:46:41.708Z,16.63
2023-06-06T03:49:04.987Z,15.93
2023-06-06T03:51:27.791Z,16.90
2023-06-06T03:53:50.955Z,15.32
2023-06-06T03:56:14.690Z,15.05
2023-06-06T03:58:37.863Z,17.58
2023-06-06T04:01:01.089Z,15.13
2023-06-06T04:03:24.209Z,13.52
2023-06-06T04:05:49.851Z,14.18
2023-06-06T04:08:13.879Z,14.63
2023-06-06T04:10:36.634Z,14.90
2023-06-06T04:13:00.233Z,17.00
2023-06-06T04:15:23.061Z,13.18
2023-06-06T04:17:46.549Z,16.63
2023-06-06T04:20:09.925Z,18.95
2023-06-06T04:22:32.834Z,17.50
2023-06-06T04:24:55.875Z,15.83
2023-06-06T04:27:19.302Z,12.82
2023-06-06T04:29:42.756Z,14.65
2023-06-06T04:32:08.396Z,14.20
2023-06-06T04:34:31.980Z,13.77
2023-06-06T04:37:18.705Z,13.33
2023-06-06T04:39:44.023Z,14.38
2023-06-06T04:42:08.970Z,15.93
2023-06-06T04:44:32.627Z,14.85
2023-06-06T04:47:02.485Z,16.65
2023-06-06T04:49:26.336Z,15.50
2023-06-06T04:51:49.045Z,14.40
2023-06-06T04:54:11.875Z,13.60
2023-06-06T04:56:35.507Z,14.35
2023-06-06T04:59:07.831Z,16.75
2023-06-06T05:01:31.770Z,13.17
2023-06-06T05:03:55.041Z,13.25
2023-06-06T05:06:18.206Z,16.33
2023-06-06T05:08:42.570Z,13.90
2023-06-06T05:11:05.442Z,15.98
2023-06-06T05:13:28.308Z,12.70
2023-06-06T05:15:51.082Z,16.17
2023-06-06T05:18:13.893Z,17.05
2023-06-06T05:20:36.855Z,14.43
2023-06-06T05:23:00.915Z,13.82
2023-06-06T05:25:26.681Z,15.23
2023-06-06T05:27:52.993Z,15.55
2023-06-06T05:30:16.467Z,16.42
2023-06-06T05:32:39.426Z,15.23
2023-06-06T05:35:03.101Z,14.63
2023-06-06T05:37:25.948Z,14.87
2023-06-06T05:39:48.625Z,14.25
2023-06-06T05:42:11.296Z,13.88
2023-06-06T05:44:34.121Z,15.90
2023-06-06T05:46:57.293Z,15.13
2023-06-06T05:49:21.100Z,15.37
2023-06-06T05:51:43.868Z,15.73
2023-06-06T05:54:16.931Z,14.13
2023-06-06T05:56:41.428Z,14.70
2023-06-06T05:59:04.206Z,14.30
2023-06-06T06:01:27.959Z,15.67
2023-06-06T06:03:51.182Z,14.45
2023-06-06T06:06:14.230Z,15.52
2023-06-06T06:08:37.841Z,14.20
2023-06-06T06:11:00.745Z,16.27
2023-06-06T06:13:23.617Z,15.27
2023-06-06T06:15:46.384Z,15.10
2023-06-06T06:18:11.304Z,18.00
2023-06-06T06:20:34.740Z,17.17
2023-06-06T06:22:57.406Z,17.33
2023-06-06T06:25:21.388Z,17.17
2023-06-06T06:27:46.350Z,15.73
2023-06-06T06:30:10.633Z,16.48
2023-06-06T06:32:37.197Z,16.77
2023-06-06T06:35:02.496Z,17.33
2023-06-06T06:37:26.837Z,16.97
2023-06-06T06:39:50.319Z,16.35
2023-06-06T06:42:13.067Z,18.13
2023-06-06T06:44:47.354Z,17.35
2023-06-06T06:47:10.559Z,17.10
2023-06-06T06:49:33.317Z,20.57
2023-06-06T06:51:56.065Z,24.40
2023-06-06T06:54:23.770Z,22.60
2023-06-06T06:56:46.894Z,21.13
2023-06-06T06:59:12.591Z,20.50
2023-06-06T07:01:35.920Z,23.53
2023-06-06T07:03:58.882Z,23.15
2023-06-06T07:06:23.494Z,22.42
2023-06-06T07:08:46.347Z,23.92
2023-06-06T07:11:09.230Z,21.80
2023-06-06T07:13:32.784Z,24.93
2023-06-06T07:15:55.538Z,25.33
2023-06-06T07:18:18.693Z,23.25
2023-06-06T07:20:42.302Z,24.65
2023-06-06T07:23:07.028Z,22.98
2023-06-06T07:25:31.889Z,22.53
2023-06-06T07:32:39.365Z,26.48
2023-06-06T07:35:02.253Z,24.30
2023-06-06T07:45:53.797Z,28.00
2023-06-06T07:48:17.075Z,27.13
2023-06-06T07:50:40.399Z,31.10
2023-06-06T07:53:03.478Z,32.13
2023-06-06T07:55:26.488Z,28.70
2023-06-06T07:57:49.333Z,31.33
2023-06-06T08:00:14.160Z,32.38
2023-06-06T08:02:37.130Z,30.45
2023-06-06T08:05:00.922Z,34.88
2023-06-06T08:07:24.262Z,28.37
2023-06-06T08:09:47.209Z,29.92
2023-06-06T08:12:11.339Z,29.90
2023-06-06T08:14:36.530Z,33.75
2023-06-06T08:16:59.219Z,33.78
2023-06-06T08:19:22.075Z,32.10
2023-06-06T08:21:44.792Z,34.03
2023-06-06T08:24:07.695Z,30.75
2023-06-06T08:26:30.600Z,33.45
2023-06-06T08:28:53.332Z,33.88
2023-06-06T08:31:16.348Z,30.37
2023-06-06T08:33:42.374Z,28.27
2023-06-06T08:36:05.912Z,28.67
2023-06-06T08:38:28.670Z,30.23
2023-06-06T08:40:54.188Z,30.42
2023-06-06T08:43:18.033Z,31.77
2023-06-06T08:45:57.721Z,29.20
2023-06-06T08:48:21.376Z,30.02
2023-06-06T08:50:44.827Z,27.98
2023-06-06T08:53:08.140Z,29.95
2023-06-06T08:55:36.234Z,27.30
2023-06-06T08:57:58.985Z,29.02
2023-06-06T09:00:22.952Z,26.70
2023-06-06T09:02:48.577Z,29.27
2023-06-06T09:05:15.008Z,28.40
2023-06-06T09:07:39.213Z,30.20
2023-06-06T09:10:02.244Z,27.30
2023-06-06T09:12:25.786Z,27.42
2023-06-06T09:14:48.665Z,27.45
2023-06-06T09:17:19.172Z,27.95
2023-06-06T09:19:46.051Z,26.93
2023-06-06T09:22:08.949Z,28.05
2023-06-06T09:24:32.326Z,29.90
2023-06-06T09:26:55.253Z,29.25
2023-06-06T09:29:18.011Z,27.33
2023-06-06T09:31:42.259Z,29.03
2023-06-06T09:34:06.450Z,30.05
2023-06-06T09:36:30.445Z,28.77
2023-06-06T09:38:53.826Z,27.83
2023-06-06T09:41:20.217Z,29.33
2023-06-06T09:43:43.839Z,27.77
2023-06-06T09:46:07.276Z,26.13
2023-06-06T09:48:30.422Z,23.58
2023-06-06T09:50:53.551Z,24.23
2023-06-06T09:53:16.978Z,22.35
2023-06-06T09:55:41.650Z,22.73
2023-06-06T09:58:04.530Z,20.10
2023-06-06T10:00:29.074Z,21.40
2023-06-06T10:02:53.126Z,20.73
2023-06-06T10:05:23.187Z,20.52
2023-06-06T10:07:47.339Z,19.77
2023-06-06T10:10:13.975Z,21.55
2023-06-06T10:12:37.069Z,20.08
2023-06-06T10:15:01.807Z,20.90
2023-06-06T10:17:25.887Z,20.33
2023-06-06T10:19:48.798Z,20.10
2023-06-06T10:22:11.712Z,22.33
2023-06-06T10:24:36.678Z,20.85
2023-06-06T10:27:22.181Z,19.58
2023-06-06T10:30:17.407Z,18.60
2023-06-06T10:32:57.547Z,19.43
2023-06-06T10:35:21.383Z,20.15
2023-06-06T10:38:08.720Z,17.00
2023-06-06T10:40:57.250Z,16.52
2023-06-06T10:43:35.886Z,16.80
2023-06-06T10:45:58.828Z,15.27
2023-06-06T10:48:40.005Z,15.75
2023-06-06T10:51:02.860Z,17.20
2023-06-06T10:53:26.387Z,15.45
2023-06-06T10:55:49.515Z,16.92
2023-06-06T10:58:24.576Z,14.13
2023-06-06T11:00:49.805Z,11.20
2023-06-06T11:03:17.173Z,11.00
2023-06-06T11:06:02.106Z,10.55
2023-06-06T11:08:34.398Z,10.25
2023-06-06T11:11:14.726Z,11.57
2023-06-06T11:13:37.696Z,14.18
2023-06-06T11:16:00.504Z,12.65
2023-06-06T11:18:41.210Z,13.52
2023-06-06T11:21:04.960Z,11.63
2023-06-06T11:23:40.239Z,13.00
2023-06-06T11:26:03.106Z,11.80
2023-06-06T11:28:26.724Z,10.82
2023-06-06T11:30:49.753Z,10.35
2023-06-06T11:33:12.886Z,10.93
2023-06-06T11:35:39.928Z,9.67
2023-06-06T11:38:02.833Z,11.55
2023-06-06T11:40:27.405Z,11.90
2023-06-06T11:42:50.136Z,10.80
2023-06-06T11:45:17.074Z,12.05
2023-06-06T11:47:40.640Z,12.67
2023-06-06T11:50:03.957Z,11.13
2023-06-06T11:52:27.099Z,12.15
2023-06-06T11:55:05.903Z,13.18
2023-06-06T11:57:28.882Z,10.27
2023-06-06T11:59:55.936Z,11.83
2023-06-06T12:02:18.796Z,10.18
2023-06-06T12:04:48.133Z,11.07
2023-06-06T12:07:11.006Z,12.82
2023-06-06T12:09:36.787Z,11.52
2023-06-06T12:12:02.168Z,10.20
2023-06-06T12:14:26.658Z,10.80
2023-06-06T12:16:49.934Z,9.98
2023-06-06T12:19:16.911Z,10.15
2023-06-06T12:21:51.965Z,9.30
2023-06-06T12:24:26.050Z,12.03
2023-06-06T12:27:06.537Z,10.70
2023-06-06T12:29:35.048Z,11.05
2023-06-06T12:32:17.028Z,12.93
2023-06-06T12:34:50.737Z,10.23
2023-06-06T12:37:13.501Z,11.17
2023-06-06T12:39:39.396Z,9.82
2023-06-06T12:42:12.071Z,11.40
2023-06-06T12:44:34.681Z,11.38
2023-06-06T12:46:57.552Z,11.43
2023-06-06T12:49:20.251Z,11.43
2023-06-06T12:51:44.106Z,10.88
2023-06-06T12:54:07.747Z,10.85
2023-06-06T12:56:30.798Z,10.98
2023-06-06T12:58:53.723Z,11.13
2023-06-06T13:01:16.730Z,11.53
2023-06-06T13:03:39.772Z,11.77
2023-06-06T13:06:02.673Z,10.93
2023-06-06T13:08:37.162Z,11.13
2023-06-06T13:11:01.490Z,13.93
2023-06-06T13:13:25.081Z,11.23
2023-06-06T13:15:47.849Z,11.77
2023-06-06T13:18:11.721Z,12.00
2023-06-06T13:20:34.457Z,12.02
2023-06-06T13:22:57.055Z,13.23
2023-06-06T13:25:21.269Z,11.87
2023-06-06T13:27:43.987Z,13.30
2023-06-06T13:30:07.409Z,12.95
2023-06-06T13:32:31.172Z,12.13
2023-06-06T13:34:54.444Z,12.45
2023-06-06T13:37:17.306Z,13.50
2023-06-06T13:39:40.050Z,12.23
2023-06-06T13:42:02.718Z,13.30
2023-06-06T13:44:26.230Z,13.57
2023-06-06T13:47:01.047Z,14.48
2023-06-06T13:50:05.613Z,13.37
2023-06-06T13:52:28.566Z,13.48
2023-06-06T13:54:52.093Z,12.02
2023-06-06T13:57:15.046Z,12.15
2023-06-06T13:59:37.712Z,14.30
2023-06-06T14:02:00.830Z,13.60
2023-06-06T14:04:23.727Z,13.63
2023-06-06T14:06:46.796Z,14.07
2023-06-06T14:09:09.731Z,12.88
2023-06-06T14:11:32.525Z,17.13
2023-06-06T14:13:55.695Z,13.07
2023-06-06T14:16:18.602Z,16.00
2023-06-06T14:18:44.713Z,17.77
2023-06-06T14:21:19.683Z,18.70
2023-06-06T14:23:42.561Z,18.80
2023-06-06T14:26:05.234Z,22.03
2023-06-06T14:28:27.958Z,19.00
2023-06-06T14:30:50.725Z,22.02
2023-06-06T14:33:13.742Z,17.98
2023-06-06T14:35:36.481Z,21.65
2023-06-06T14:37:59.803Z,20.50
2023-06-06T14:40:22.465Z,18.42
2023-06-06T14:42:45.161Z,21.52
2023-06-06T14:45:08.420Z,21.83
2023-06-06T14:47:31.222Z,24.45
2023-06-06T14:49:53.952Z,20.57
2023-06-06T14:52:16.697Z,21.85
2023-06-06T14:54:44.029Z,20.85
2023-06-06T14:57:07.360Z,23.77
2023-06-06T14:59:31.097Z,20.70
2023-06-06T15:01:54.066Z,23.17
2023-06-06T15:04:16.682Z,25.23
2023-06-06T15:06:39.402Z,23.83
2023-06-06T15:09:05.176Z,25.25
2023-06-06T15:11:29.852Z,23.00
2023-06-06T15:13:53.195Z,24.10
2023-06-06T15:16:15.987Z,25.60
2023-06-06T15:18:39.305Z,27.45
2023-06-06T15:21:01.952Z,26.58
2023-06-06T15:23:24.675Z,28.30
2023-06-06T15:25:48.335Z,25.80
2023-06-06T15:28:11.624Z,29.90
2023-06-06T15:30:34.305Z,27.65
2023-06-06T15:32:57.089Z,26.48
2023-06-06T15:35:20.197Z,28.50
2023-06-06T15:37:43.154Z,26.93
2023-06-06T15:40:06.420Z,25.58
2023-06-06T15:42:29.428Z,24.52
2023-06-06T15:44:57.576Z,24.58
2023-06-06T15:47:20.609Z,23.38
2023-06-06T15:49:43.242Z,20.97
2023-06-06T15:52:06.263Z,22.00
2023-06-06T15:54:28.904Z,23.85
2023-06-06T15:56:51.578Z,21.08
2023-06-06T15:59:14.247Z,22.63
2023-06-06T16:01:37.186Z,21.90
2023-06-06T16:04:00.433Z,22.60
2023-06-06T16:06:26.891Z,20.85
2023-06-06T16:08:49.770Z,18.10
2023-06-06T16:11:12.430Z,18.02
2023-06-06T16:13:35.208Z,19.23
2023-06-06T16:15:57.804Z,20.42
2023-06-06T16:18:21.021Z,19.20
2023-06-06T16:20:44.032Z,17.90
2023-06-06T16:23:06.883Z,17.85
2023-06-06T16:25:29.424Z,16.57
2023-06-06T16:27:52.198Z,18.35
2023-06-06T16:30:15.373Z,16.90
2023-06-06T16:32:38.507Z,19.00
2023-06-06T16:35:01.171Z,15.75
2023-06-06T16:37:23.993Z,17.40
2023-06-06T16:39:46.687Z,18.35
2023-06-06T16:42:11.178Z,17.42
2023-06-06T16:44:35.126Z,17.85
2023-06-06T16:46:57.816Z,18.33
2023-06-06T16:49:20.531Z,16.90
2023-06-06T16:51:43.261Z,16.60
2023-06-06T16:54:07.828Z,15.93
2023-06-06T16:56:30.613Z,16.35
2023-06-06T16:58:54.072Z,14.25
2023-06-06T17:01:18.432Z,16.30
2023-06-06T17:03:41.271Z,14.93
2023-06-06T17:06:05.074Z,15.82
2023-06-06T17:08:27.707Z,14.93
2023-06-06T17:10:50.537Z,14.15
2023-06-06T17:13:15.621Z,16.73
2023-06-06T17:15:39.368Z,15.57
2023-06-06T17:18:02.326Z,14.82
2023-06-06T17:20:28.093Z,13.70
2023-06-06T17:22:50.830Z,14.32
2023-06-06T17:25:13.476Z,15.90
2023-06-06T17:27:37.833Z,16.70
2023-06-06T17:30:02.629Z,13.68
2023-06-06T17:32:27.738Z,13.55
2023-06-06T17:34:50.868Z,14.07
2023-06-06T17:37:13.866Z,12.93
2023-06-06T17:39:36.868Z,11.05
2023-06-06T17:41:59.618Z,10.25
2023-06-06T17:44:25.008Z,8.13
2023-06-06T17:46:47.849Z,7.07
2023-06-06T17:49:10.919Z,9.63
2023-06-06T17:51:34.289Z,9.63
2023-06-06T17:54:18.124Z,7.45
2023-06-06T17:56:41.775Z,8.55
2023-06-06T17:59:04.387Z,9.07
2023-06-06T18:01:27.614Z,8.40
2023-06-06T18:03:50.348Z,8.43
2023-06-06T18:06:14.978Z,9.68
2023-06-06T18:08:37.919Z,9.15
2023-06-06T18:11:00.754Z,8.70
2023-06-06T18:13:23.422Z,9.93
2023-06-06T18:15:46.220Z,12.40
2023-06-06T18:18:09.011Z,10.68
2023-06-06T18:20:34.045Z,9.70
2023-06-06T18:22:57.272Z,8.20
2023-06-06T18:25:20.115Z,9.97
2023-06-06T18:27:42.713Z,7.78
2023-06-06T18:30:08.344Z,10.60
2023-06-06T18:32:31.293Z,9.40
2023-06-06T18:34:53.951Z,10.52
2023-06-06T18:37:17.533Z,10.00
2023-06-06T18:39:40.244Z,9.38
2023-06-06T18:42:04.920Z,9.27
2023-06-06T18:44:27.676Z,11.60
2023-06-06T18:46:50.298Z,10.77
2023-06-06T18:49:13.019Z,10.03
2023-06-06T18:51:37.383Z,12.10
2023-06-06T18:54:00.268Z,12.05
2023-06-06T18:56:25.324Z,13.13
2023-06-06T18:58:51.158Z,13.13
2023-06-06T19:01:14.654Z,13.90
2023-06-06T19:03:37.658Z,11.73
2023-06-06T19:06:00.469Z,12.80
2023-06-06T19:08:23.608Z,12.48
2023-06-06T19:10:46.311Z,14.40
2023-06-06T19:13:08.991Z,14.23
2023-06-06T19:15:31.963Z,12.32
2023-06-06T19:17:54.723Z,15.50
2023-06-06T19:20:18.899Z,11.85
2023-06-06T19:22:42.061Z,11.63
2023-06-06T19:25:05.098Z,12.80
2023-06-06T19:27:30.424Z,12.65
2023-06-06T19:29:53.155Z,13.98
2023-06-06T19:32:16.569Z,12.45
2023-06-06T19:34:39.454Z,11.90
2023-06-06T19:37:02.198Z,12.20
2023-06-06T19:39:24.987Z,12.68
2023-06-06T19:41:47.698Z,13.15
2023-06-06T19:44:10.756Z,13.82
2023-06-06T19:46:33.772Z,10.43
2023-06-06T19:48:56.922Z,13.50
2023-06-06T19:51:20.895Z,12.02
2023-06-06T19:53:45.515Z,12.70
2023-06-06T19:56:08.437Z,10.82
2023-06-06T19:58:31.116Z,10.68
2023-06-06T20:00:59.148Z,13.97
2023-06-06T20:03:22.489Z,11.05
2023-06-06T20:05:45.555Z,10.50
2023-06-06T20:08:08.502Z,12.25
2023-06-06T20:10:31.472Z,11.25
2023-06-06T20:12:54.128Z,9.40
2023-06-06T20:15:16.744Z,10.77
2023-06-06T20:17:40.042Z,11.38
2023-06-06T20:20:03.311Z,9.98
2023-06-06T20:22:29.671Z,10.07
2023-06-06T20:24:52.370Z,13.07
2023-06-06T20:27:16.721Z,11.32
2023-06-06T20:29:39.420Z,9.50
2023-06-06T20:32:02.182Z,10.55
2023-06-06T20:34:24.826Z,9.80
2023-06-06T20:36:47.626Z,10.97
2023-06-06T20:39:15.450Z,10.07
2023-06-06T20:41:38.123Z,11.93
2023-06-06T20:44:00.732Z,11.20
2023-06-06T20:46:23.414Z,10.57
2023-06-06T20:48:46.406Z,11.23
2023-06-06T20:51:09.114Z,12.82
2023-06-06T20:53:32.812Z,9.50
2023-06-06T20:55:55.501Z,10.93
2023-06-06T20:58:18.859Z,9.15
2023-06-06T21:00:41.554Z,12.13
2023-06-06T21:03:04.390Z,10.95
2023-06-06T21:05:27.171Z,12.75
2023-06-06T21:07:50.072Z,10.15
2023-06-06T21:10:12.663Z,10.90
2023-06-06T21:12:36.863Z,11.73
2023-06-06T21:15:00.382Z,11.40
2023-06-06T21:17:23.915Z,11.15
2023-06-06T21:19:47.229Z,10.38
2023-06-06T21:22:09.986Z,11.07
2023-06-06T21:24:32.911Z,10.93
2023-06-06T21:26:55.656Z,10.55
2023-06-06T21:29:18.710Z,12.57
2023-06-06T21:31:41.588Z,12.25
2023-06-06T21:34:04.431Z,13.23
2023-06-06T21:36:27.126Z,13.03
2023-06-06T21:38:49.963Z,13.02
2023-06-06T21:41:12.768Z,14.68
2023-06-06T21:43:35.450Z,13.48
2023-06-06T21:45:58.122Z,13.15
2023-06-06T21:48:20.763Z,14.17
2023-06-06T21:50:43.460Z,13.82
2023-06-06T21:53:06.514Z,12.20
2023-06-06T21:55:29.196Z,12.90
2023-06-06T21:57:51.844Z,13.85
2023-06-06T22:00:16.000Z,13.80
2023-06-06T22:02:39.613Z,12.85
2023-06-06T22:05:02.354Z,10.50
2023-06-06T22:07:28.227Z,10.60
2023-06-06T22:09:51.087Z,10.43
2023-06-06T22:12:13.830Z,9.30
2023-06-06T22:14:36.675Z,8.43
2023-06-06T22:16:59.613Z,8.30
2023-06-06T22:19:23.128Z,9.05
2023-06-06T22:21:45.799Z,8.02
2023-06-06T22:24:08.596Z,6.73
2023-06-06T22:26:32.463Z,7.45
2023-06-06T22:28:55.204Z,8.27
2023-06-06T22:31:18.243Z,7.10
2023-06-06T22:33:41.037Z,8.70
2023-06-06T22:36:04.416Z,8.83
2023-06-06T22:38:27.217Z,7.85
2023-06-06T22:40:49.795Z,7.63
2023-06-06T22:43:13.410Z,10.15
2023-06-06T22:45:36.168Z,7.55
2023-06-06T22:47:59.589Z,6.53
2023-06-06T22:50:22.381Z,7.70
2023-06-06T22:52:46.817Z,8.60
2023-06-06T22:55:10.792Z,7.60
2023-06-06T22:57:33.464Z,8.48
2023-06-06T22:59:56.114Z,8.37
2023-06-06T23:02:18.881Z,10.15
2023-06-06T23:04:41.692Z,7.93
2023-06-06T23:07:05.670Z,8.65
2023-06-06T23:09:28.682Z,10.45
2023-06-06T23:11:51.386Z,8.17
2023-06-06T23:14:16.160Z,7.30
2023-06-06T23:16:39.082Z,9.82
2023-06-06T23:19:02.021Z,8.13
2023-06-06T23:21:29.022Z,9.18
2023-06-06T23:23:51.739Z,7.00
2023-06-06T23:26:14.608Z,7.07
2023-06-06T23:28:37.202Z,8.27
2023-06-06T23:31:00.010Z,7.53
2023-06-06T23:33:25.079Z,8.82
2023-06-06T23:35:47.768Z,7.63
2023-06-06T23:38:10.441Z,9.40
2023-06-06T23:40:33.246Z,8.40
2023-06-06T23:42:55.837Z,9.25
2023-06-06T23:45:18.514Z,9.38
2023-06-06T23:47:41.196Z,7.73
2023-06-06T23:50:04.176Z,9.15
2023-06-06T23:52:28.012Z,12.95
2023-06-06T23:54:50.738Z,7.82
2023-06-06T23:57:13.923Z,8.70
2023-06-06T23:59:36.635Z,9.90
